Pangnirtung, Canada
Current Conditions -  °F | °C
As of 7:00 PM on Thursday 18 Dec 2014 (Local Time) from CYXP Reporting Station
Few Clouds Few Clouds  
Wind Chill: -6°   Ceiling: Unl
Heat Index: -6°   Visibility: 15mi
Dew Point: -15°   Wind: 0mph
Humidity: 65%   Direction: NA
Pressure: 29.84"   Gusts: NA
Location:  66.15°N, 65.69°W
Report Text: CYXP 182300Z 00000KT 15SM FEW070 M21/M26 A2984 RMK AC1 AC TR -15.3/-21.1/0.0/30 MUCH LOOSE LAST STFD OBS/NEXT 191200Z SLP106
Loading
Personal Weather Stations






























Interactive Weather Map New forecast layout! Learn more

10-Day Weather Forecast

Advertisements
Track Severe Weather on mobile